createdAt,value
2023-04-16T00:01:28.155Z,45.60
2023-04-16T00:03:57.832Z,45.80
2023-04-16T00:06:27.570Z,44.70
2023-04-16T00:08:55.736Z,45.20
2023-04-16T00:11:23.924Z,45.60
2023-04-16T00:13:52.132Z,45.80
2023-04-16T00:16:20.586Z,45.30
2023-04-16T00:18:48.826Z,45.30
2023-04-16T00:21:18.392Z,44.90
2023-04-16T00:23:46.565Z,44.00
2023-04-16T00:26:14.747Z,43.80
2023-04-16T00:28:45.514Z,43.70
2023-04-16T00:31:13.793Z,43.50
2023-04-16T00:33:42.085Z,43.30
2023-04-16T00:36:11.013Z,43.60
2023-04-16T00:38:40.676Z,43.70
2023-04-16T00:41:08.826Z,43.70
2023-04-16T00:43:37.162Z,43.80
2023-04-16T00:46:07.707Z,44.40
2023-04-16T00:48:36.904Z,43.70
2023-04-16T00:51:06.552Z,43.60
2023-04-16T00:53:35.513Z,43.00
2023-04-16T00:56:08.192Z,42.80
2023-04-16T00:58:36.725Z,42.80
2023-04-16T01:01:04.976Z,43.20
2023-04-16T01:03:39.533Z,43.60
2023-04-16T01:06:08.492Z,43.80
2023-04-16T01:08:36.810Z,44.40
2023-04-16T01:11:06.866Z,44.10
2023-04-16T01:13:39.173Z,43.40
2023-04-16T01:16:09.746Z,43.50
2023-04-16T01:18:38.861Z,43.80
2023-04-16T01:21:08.776Z,43.60
2023-04-16T01:23:36.974Z,43.70
2023-04-16T01:26:05.446Z,43.40
2023-04-16T01:28:33.665Z,43.90
2023-04-16T01:31:01.911Z,44.00
2023-04-16T01:33:47.807Z,45.20
2023-04-16T01:36:17.428Z,44.40
2023-04-16T01:38:47.069Z,44.30
2023-04-16T01:41:15.523Z,44.10
2023-04-16T01:43:43.835Z,45.00
2023-04-16T01:46:19.088Z,44.90
2023-04-16T01:48:48.175Z,45.10
2023-04-16T01:51:17.793Z,44.70
2023-04-16T01:53:46.614Z,44.30
2023-04-16T01:56:14.781Z,44.30
2023-04-16T01:58:43.568Z,43.90
2023-04-16T02:01:11.917Z,44.20
2023-04-16T02:03:41.636Z,44.20
2023-04-16T02:06:10.034Z,44.70
2023-04-16T02:08:39.586Z,44.90
2023-04-16T02:11:08.510Z,45.90
2023-04-16T02:13:37.245Z,46.10
2023-04-16T02:16:06.374Z,46.10
2023-04-16T02:18:44.870Z,46.20
2023-04-16T02:21:15.614Z,45.50
2023-04-16T02:23:47.947Z,45.10
2023-04-16T02:26:17.116Z,44.60
2023-04-16T02:28:45.751Z,44.40
2023-04-16T02:31:17.919Z,43.70
2023-04-16T02:33:46.331Z,43.20
2023-04-16T02:36:14.601Z,43.00
2023-04-16T02:38:42.809Z,43.60
2023-04-16T02:41:12.378Z,43.60
2023-04-16T02:43:40.817Z,43.30
2023-04-16T02:46:09.840Z,43.10
2023-04-16T02:48:38.033Z,43.50
2023-04-16T02:51:06.690Z,43.50
2023-04-16T02:53:34.939Z,44.00
2023-04-16T02:56:03.434Z,44.80
2023-04-16T02:58:33.424Z,44.20
2023-04-16T03:01:01.746Z,44.10
2023-04-16T03:03:30.244Z,44.20
2023-04-16T03:05:58.477Z,44.80
2023-04-16T03:08:27.449Z,45.00
2023-04-16T03:10:55.697Z,44.60
2023-04-16T03:13:23.881Z,44.80
2023-04-16T03:15:53.520Z,44.40
2023-04-16T03:18:21.716Z,44.80
2023-04-16T03:20:53.252Z,44.40
2023-04-16T03:23:21.671Z,45.50
2023-04-16T03:25:49.911Z,44.90
2023-04-16T03:28:20.061Z,44.20
2023-04-16T03:30:53.572Z,44.20
2023-04-16T03:33:22.707Z,43.50
2023-04-16T03:35:59.028Z,43.50
2023-04-16T03:38:30.660Z,43.00
2023-04-16T03:41:00.623Z,44.00
2023-04-16T03:43:31.789Z,43.80
2023-04-16T03:46:01.396Z,44.30
2023-04-16T03:48:29.720Z,44.60
2023-04-16T03:50:59.269Z,45.20
2023-04-16T03:53:27.893Z,44.80
2023-04-16T03:55:56.356Z,44.70
2023-04-16T03:58:24.518Z,44.80
2023-04-16T04:00:54.882Z,44.60
2023-04-16T04:03:26.192Z,44.80
2023-04-16T04:05:56.090Z,43.70
2023-04-16T04:08:28.646Z,43.80
2023-04-16T04:10:56.878Z,44.30
2023-04-16T04:13:26.569Z,45.40
2023-04-16T04:15:55.424Z,45.60
2023-04-16T04:18:26.145Z,47.10
2023-04-16T04:20:54.859Z,47.90
2023-04-16T04:23:27.182Z,48.70
2023-04-16T04:25:55.423Z,50.00
2023-04-16T04:28:24.071Z,49.50
2023-04-16T04:30:52.312Z,48.60
2023-04-16T04:33:20.801Z,48.50
2023-04-16T04:35:51.048Z,49.80
2023-04-16T04:38:21.134Z,50.50
2023-04-16T04:40:50.867Z,50.80
2023-04-16T04:43:20.790Z,49.80
2023-04-16T04:45:49.556Z,51.10
2023-04-16T04:48:18.511Z,51.20
2023-04-16T04:50:47.571Z,51.80
2023-04-16T04:53:17.179Z,52.90
2023-04-16T04:55:45.491Z,52.80
2023-04-16T04:58:13.795Z,52.00
2023-04-16T05:00:44.154Z,53.60
2023-04-16T05:03:13.546Z,53.10
2023-04-16T05:05:42.245Z,52.90
2023-04-16T05:08:10.445Z,55.00
2023-04-16T05:10:40.015Z,55.60
2023-04-16T05:13:08.187Z,54.10
2023-04-16T05:15:36.381Z,55.20
2023-04-16T05:18:04.693Z,55.70
2023-04-16T05:20:32.933Z,55.40
2023-04-16T05:23:01.085Z,56.00
2023-04-16T05:25:29.308Z,56.20
2023-04-16T05:27:58.866Z,55.60
2023-04-16T05:30:27.014Z,55.50
2023-04-16T05:32:55.211Z,55.40
2023-04-16T05:35:23.504Z,56.10
2023-04-16T05:37:51.706Z,56.20
2023-04-16T05:40:20.146Z,56.60
2023-04-16T05:42:48.753Z,56.20
2023-04-16T05:45:18.362Z,56.60
2023-04-16T05:47:46.588Z,56.70
2023-04-16T05:50:14.830Z,56.30
2023-04-16T05:52:42.997Z,56.50
2023-04-16T05:55:11.672Z,56.80
2023-04-16T05:57:39.895Z,56.70
2023-04-16T06:00:09.360Z,55.90
2023-04-16T06:02:41.868Z,56.10
2023-04-16T06:05:10.635Z,57.00
2023-04-16T06:07:38.898Z,57.40
2023-04-16T06:10:08.130Z,58.10
2023-04-16T06:12:36.325Z,58.70
2023-04-16T06:15:04.882Z,58.50
2023-04-16T06:17:33.122Z,58.10
2023-04-16T06:20:02.705Z,59.10
2023-04-16T06:22:31.257Z,59.00
2023-04-16T06:24:59.460Z,59.20
2023-04-16T06:27:27.674Z,59.60
2023-04-16T06:29:55.954Z,58.80
2023-04-16T06:32:24.308Z,58.60
2023-04-16T06:34:52.557Z,58.00
2023-04-16T06:37:22.130Z,57.90
2023-04-16T06:39:50.401Z,58.10
2023-04-16T06:42:19.028Z,58.50
2023-04-16T06:44:48.185Z,58.10
2023-04-16T06:47:16.917Z,58.30
2023-04-16T06:49:45.277Z,58.20
2023-04-16T06:52:13.715Z,58.10
2023-04-16T06:54:43.390Z,58.40
2023-04-16T06:57:13.962Z,58.10
2023-04-16T06:59:42.158Z,58.70
2023-04-16T07:02:11.814Z,59.20
2023-04-16T07:04:40.079Z,59.30
2023-04-16T07:07:08.375Z,58.80
2023-04-16T07:09:36.614Z,58.30
2023-04-16T07:12:06.963Z,58.10
2023-04-16T07:14:35.200Z,58.50
2023-04-16T07:17:03.407Z,56.10
2023-04-16T07:19:32.776Z,56.10
2023-04-16T07:22:01.271Z,56.50
2023-04-16T07:24:29.521Z,56.80
2023-04-16T07:26:57.695Z,55.50
2023-04-16T07:29:27.258Z,56.50
2023-04-16T07:31:55.542Z,55.70
2023-04-16T07:34:23.819Z,56.50
2023-04-16T07:36:52.092Z,56.20
2023-04-16T07:39:20.309Z,55.70
2023-04-16T07:41:48.576Z,56.10
2023-04-16T07:44:16.808Z,55.00
2023-04-16T07:46:47.635Z,54.70
2023-04-16T07:49:16.064Z,54.20
2023-04-16T07:51:44.516Z,55.50
2023-04-16T07:54:14.648Z,56.60
2023-04-16T07:56:42.892Z,56.10
2023-04-16T07:59:21.805Z,56.50
2023-04-16T08:01:54.899Z,56.50
2023-04-16T08:04:27.325Z,55.80
2023-04-16T08:06:55.798Z,55.80
2023-04-16T08:09:24.965Z,55.60
2023-04-16T08:11:53.215Z,55.10
2023-04-16T08:14:21.823Z,53.90
2023-04-16T08:16:50.442Z,54.40
2023-04-16T08:19:20.094Z,54.20
2023-04-16T08:21:48.578Z,53.30
2023-04-16T08:24:16.757Z,51.40
2023-04-16T08:26:45.142Z,50.80
2023-04-16T08:29:13.446Z,51.60
2023-04-16T08:31:42.665Z,50.70
2023-04-16T08:34:12.292Z,49.90
2023-04-16T08:36:42.016Z,48.50
2023-04-16T08:39:10.617Z,48.90
2023-04-16T08:41:43.872Z,49.00
2023-04-16T08:44:29.300Z,47.80
2023-04-16T08:46:59.109Z,46.90
2023-04-16T08:49:28.253Z,46.50
2023-04-16T08:51:58.335Z,47.00
2023-04-16T08:54:35.739Z,47.80
2023-04-16T08:57:07.666Z,46.90
2023-04-16T08:59:36.590Z,47.60
2023-04-16T09:02:06.946Z,45.50
2023-04-16T09:04:36.154Z,46.20
2023-04-16T09:07:08.053Z,47.10
2023-04-16T09:09:36.675Z,46.40
2023-04-16T09:12:06.391Z,46.00
2023-04-16T09:14:34.600Z,45.60
2023-04-16T09:17:03.480Z,47.00
2023-04-16T09:19:31.661Z,47.40
2023-04-16T09:21:59.972Z,46.20
2023-04-16T09:24:30.610Z,45.20
2023-04-16T09:26:59.884Z,45.00
2023-04-16T09:29:36.166Z,42.30
2023-04-16T09:32:06.626Z,42.90
2023-04-16T09:34:56.006Z,41.90
2023-04-16T09:37:24.858Z,40.00
2023-04-16T09:39:58.472Z,40.00
2023-04-16T09:42:28.672Z,40.30
2023-04-16T09:45:00.283Z,39.40
2023-04-16T09:47:42.509Z,39.20
2023-04-16T09:50:17.733Z,38.10
2023-04-16T09:52:49.969Z,39.20
2023-04-16T09:55:24.200Z,39.30
2023-04-16T09:58:00.959Z,38.20
2023-04-16T10:00:30.801Z,38.60
2023-04-16T10:03:06.014Z,38.10
2023-04-16T10:05:36.517Z,37.90
2023-04-16T10:08:12.160Z,37.80
2023-04-16T10:10:42.315Z,37.90
2023-04-16T10:13:10.807Z,36.00
2023-04-16T10:15:39.773Z,36.50
2023-04-16T10:18:08.418Z,36.20
2023-04-16T10:20:37.815Z,35.80
2023-04-16T10:23:06.367Z,35.50
2023-04-16T10:25:35.814Z,33.90
2023-04-16T10:28:05.990Z,33.00
2023-04-16T10:30:34.711Z,32.30
2023-04-16T10:33:04.977Z,32.80
2023-04-16T10:35:33.277Z,32.80
2023-04-16T10:38:24.054Z,33.90
2023-04-16T10:40:59.056Z,31.90
2023-04-16T10:43:30.379Z,32.00
2023-04-16T10:45:58.706Z,32.80
2023-04-16T10:48:33.123Z,30.90
2023-04-16T10:51:27.815Z,31.30
2023-04-16T10:53:57.398Z,31.50
2023-04-16T10:56:27.287Z,31.60
2023-04-16T10:58:57.309Z,33.00
2023-04-16T11:01:32.578Z,32.50
2023-04-16T11:04:04.666Z,32.80
2023-04-16T11:06:33.052Z,32.90
2023-04-16T11:09:03.900Z,32.20
2023-04-16T11:11:39.711Z,31.90
2023-04-16T11:14:11.892Z,32.50
2023-04-16T11:16:42.477Z,31.50
2023-04-16T11:19:17.922Z,32.30
2023-04-16T11:21:47.006Z,32.70
2023-04-16T11:24:15.397Z,33.40
2023-04-16T11:26:43.676Z,31.20
2023-04-16T11:29:16.589Z,32.10
2023-04-16T11:31:51.602Z,32.80
2023-04-16T11:34:20.679Z,33.80
2023-04-16T11:36:50.582Z,33.80
2023-04-16T11:39:18.947Z,32.50
2023-04-16T11:41:47.929Z,32.70
2023-04-16T11:44:22.527Z,32.40
2023-04-16T11:46:51.550Z,31.50
2023-04-16T11:49:28.635Z,31.90
2023-04-16T11:51:57.136Z,33.60
2023-04-16T11:54:26.166Z,33.50
2023-04-16T11:56:54.711Z,31.80
2023-04-16T11:59:26.999Z,31.60
2023-04-16T12:01:56.607Z,31.90
2023-04-16T12:04:26.819Z,32.30
2023-04-16T12:07:09.396Z,32.40
2023-04-16T12:09:40.476Z,32.10
2023-04-16T12:12:27.248Z,32.40
2023-04-16T12:14:59.516Z,31.30
2023-04-16T12:17:27.784Z,30.20
2023-04-16T12:20:00.352Z,30.00
2023-04-16T12:22:30.201Z,30.50
2023-04-16T12:25:00.548Z,30.60
2023-04-16T12:27:42.502Z,30.60
2023-04-16T12:30:13.195Z,31.40
2023-04-16T12:32:42.102Z,30.80
2023-04-16T12:35:12.396Z,30.30
2023-04-16T12:37:41.261Z,30.50
2023-04-16T12:40:10.355Z,31.10
2023-04-16T12:42:38.603Z,30.90
2023-04-16T12:45:08.088Z,31.60
2023-04-16T12:47:37.705Z,31.50
2023-04-16T12:50:07.143Z,31.60
2023-04-16T12:52:35.723Z,31.80
2023-04-16T12:55:04.642Z,32.20
2023-04-16T12:57:35.703Z,30.00
2023-04-16T13:00:05.002Z,29.40
2023-04-16T13:02:34.464Z,29.80
2023-04-16T13:05:04.218Z,30.30
2023-04-16T13:07:33.926Z,29.30
2023-04-16T13:10:02.508Z,29.90
2023-04-16T13:12:30.992Z,30.00
2023-04-16T13:14:59.355Z,29.70
2023-04-16T13:17:27.733Z,31.10
2023-04-16T13:19:55.993Z,30.00
2023-04-16T13:22:26.199Z,30.60
2023-04-16T13:24:57.009Z,31.30
2023-04-16T13:27:25.252Z,31.80
2023-04-16T13:29:53.576Z,31.60
2023-04-16T13:32:22.150Z,32.50
2023-04-16T13:34:50.788Z,33.90
2023-04-16T13:37:18.971Z,31.80
2023-04-16T13:39:48.565Z,33.10
2023-04-16T13:42:16.984Z,33.30
2023-04-16T13:44:48.750Z,32.90
2023-04-16T13:47:16.972Z,30.90
2023-04-16T13:49:45.386Z,30.60
2023-04-16T13:52:13.626Z,30.80
2023-04-16T13:54:41.876Z,32.20
2023-04-16T13:57:22.073Z,31.90
2023-04-16T13:59:50.405Z,30.90
2023-04-16T14:02:18.847Z,29.90
2023-04-16T14:04:47.404Z,30.50
2023-04-16T14:07:16.303Z,30.00
2023-04-16T14:09:44.478Z,32.90
2023-04-16T14:12:13.987Z,32.60
2023-04-16T14:14:43.596Z,33.50
2023-04-16T14:17:13.679Z,32.40
2023-04-16T14:19:41.936Z,30.80
2023-04-16T14:22:10.321Z,31.70
2023-04-16T14:24:38.488Z,31.20
2023-04-16T14:27:06.739Z,31.10
2023-04-16T14:29:34.902Z,29.90
2023-04-16T14:32:04.962Z,30.10
2023-04-16T14:34:33.667Z,29.70
2023-04-16T14:37:02.047Z,29.50
2023-04-16T14:39:30.671Z,29.80
2023-04-16T14:41:58.911Z,30.30
2023-04-16T14:44:27.090Z,30.20
2023-04-16T14:46:55.314Z,30.10
2023-04-16T14:49:27.001Z,30.00
2023-04-16T14:52:05.782Z,30.90
2023-04-16T14:54:34.353Z,31.20
2023-04-16T14:57:03.430Z,31.10
2023-04-16T14:59:32.320Z,32.20
2023-04-16T15:02:00.977Z,32.40
2023-04-16T15:04:31.128Z,30.50
2023-04-16T15:06:59.849Z,30.30
2023-04-16T15:09:28.069Z,31.30
2023-04-16T15:11:56.884Z,31.30
2023-04-16T15:14:25.145Z,31.10
2023-04-16T15:16:53.946Z,30.60
2023-04-16T15:19:22.364Z,31.20
2023-04-16T15:21:51.877Z,31.90
2023-04-16T15:24:20.050Z,32.20
2023-04-16T15:26:48.206Z,31.80
2023-04-16T15:29:16.806Z,31.90
2023-04-16T15:31:47.281Z,31.80
2023-04-16T15:34:15.436Z,32.00
2023-04-16T15:36:43.696Z,32.50
2023-04-16T15:39:15.973Z,33.00
2023-04-16T15:41:57.519Z,33.10
2023-04-16T15:44:27.882Z,33.60
2023-04-16T15:46:56.427Z,32.90
2023-04-16T15:49:24.799Z,33.20
2023-04-16T15:51:53.822Z,32.70
2023-04-16T15:54:23.444Z,32.30
2023-04-16T15:56:52.272Z,33.00
2023-04-16T15:59:23.048Z,33.50
2023-04-16T16:01:51.321Z,33.10
2023-04-16T16:04:22.131Z,33.10
2023-04-16T16:06:50.853Z,32.70
2023-04-16T16:09:25.475Z,32.70
2023-04-16T16:11:59.738Z,33.50
2023-04-16T16:14:27.901Z,34.00
2023-04-16T16:16:56.052Z,33.60
2023-04-16T16:19:24.220Z,33.50
2023-04-16T16:21:52.514Z,33.80
2023-04-16T16:24:20.879Z,34.00
2023-04-16T16:26:49.007Z,34.10
2023-04-16T16:29:18.528Z,34.30
2023-04-16T16:31:46.765Z,34.50
2023-04-16T16:34:20.979Z,34.30
2023-04-16T16:36:50.613Z,34.50
2023-04-16T16:39:22.280Z,34.70
2023-04-16T16:41:54.668Z,34.70
2023-04-16T16:44:24.582Z,34.70
2023-04-16T16:46:52.890Z,35.00
2023-04-16T16:49:21.076Z,35.30
2023-04-16T16:51:49.558Z,35.80
2023-04-16T16:54:17.823Z,35.70
2023-04-16T16:56:46.289Z,36.10
2023-04-16T16:59:14.487Z,36.10
2023-04-16T17:01:44.059Z,36.70
2023-04-16T17:04:12.339Z,36.20
2023-04-16T17:06:40.627Z,36.30
2023-04-16T17:09:08.956Z,36.80
2023-04-16T17:11:37.763Z,37.00
2023-04-16T17:14:08.501Z,36.80
2023-04-16T17:16:36.738Z,36.80
2023-04-16T17:19:06.336Z,37.20
2023-04-16T17:21:37.129Z,37.60
2023-04-16T17:24:07.924Z,37.50
2023-04-16T17:26:39.363Z,37.60
2023-04-16T17:29:07.981Z,37.60
2023-04-16T17:31:36.412Z,37.50
2023-04-16T17:34:06.319Z,37.60
2023-04-16T17:36:34.513Z,37.90
2023-04-16T17:39:03.624Z,38.00
2023-04-16T17:41:33.904Z,37.40
2023-04-16T17:44:02.107Z,37.80
2023-04-16T17:46:30.282Z,37.30
2023-04-16T17:48:58.698Z,37.60
2023-04-16T17:51:31.274Z,37.70
2023-04-16T17:53:59.534Z,37.90
2023-04-16T17:56:27.719Z,38.00
2023-04-16T17:58:55.909Z,38.30
2023-04-16T18:01:24.162Z,37.70
2023-04-16T18:03:52.921Z,38.50
2023-04-16T18:06:21.397Z,39.00
2023-04-16T18:08:51.215Z,39.20
2023-04-16T18:11:19.654Z,39.30
2023-04-16T18:13:47.850Z,39.10
2023-04-16T18:16:17.651Z,39.40
2023-04-16T18:18:48.005Z,39.60
2023-04-16T18:21:18.412Z,40.00
2023-04-16T18:23:46.617Z,40.30
2023-04-16T18:26:20.930Z,40.50
2023-04-16T18:28:51.178Z,40.10
2023-04-16T18:31:21.337Z,40.20
2023-04-16T18:33:57.301Z,40.30
2023-04-16T18:36:26.089Z,40.50
2023-04-16T18:39:02.242Z,40.50
2023-04-16T18:41:32.472Z,40.80
2023-04-16T18:44:00.772Z,41.20
2023-04-16T18:46:28.986Z,41.50
2023-04-16T18:48:58.949Z,42.10
2023-04-16T18:51:30.021Z,41.40
2023-04-16T18:54:02.085Z,41.70
2023-04-16T18:56:35.554Z,42.30
2023-04-16T18:59:04.040Z,42.50
2023-04-16T19:01:36.195Z,43.10
2023-04-16T19:04:16.123Z,43.00
2023-04-16T19:06:46.636Z,42.80
2023-04-16T19:09:15.032Z,42.30
2023-04-16T19:11:49.254Z,42.30
2023-04-16T19:14:17.436Z,42.20
2023-04-16T19:16:45.708Z,42.50
2023-04-16T19:19:14.935Z,43.40
2023-04-16T19:21:43.098Z,43.40
2023-04-16T19:24:19.353Z,43.10
2023-04-16T19:26:51.961Z,43.20
2023-04-16T19:29:20.271Z,43.90
2023-04-16T19:31:49.523Z,44.10
2023-04-16T19:34:18.126Z,43.80
2023-04-16T19:36:50.961Z,43.90
2023-04-16T19:39:19.456Z,44.30
2023-04-16T19:41:49.001Z,44.60
2023-04-16T19:44:19.567Z,45.70
2023-04-16T19:46:49.237Z,44.90
2023-04-16T19:49:17.797Z,44.50
2023-04-16T19:51:46.277Z,44.40
2023-04-16T19:54:15.028Z,44.10
2023-04-16T19:56:43.551Z,44.40
2023-04-16T19:59:15.146Z,43.80
2023-04-16T20:01:44.844Z,43.60
2023-04-16T20:04:15.311Z,43.70
2023-04-16T20:06:46.458Z,43.30
2023-04-16T20:09:18.544Z,43.20
2023-04-16T20:11:50.022Z,43.60
2023-04-16T20:14:19.700Z,43.50
2023-04-16T20:16:48.083Z,44.20
2023-04-16T20:19:20.074Z,44.20
2023-04-16T20:21:48.955Z,43.40
2023-04-16T20:24:17.424Z,43.10
2023-04-16T20:26:45.626Z,43.30
2023-04-16T20:29:14.698Z,43.90
2023-04-16T20:31:45.875Z,43.40
2023-04-16T20:34:17.085Z,42.90
2023-04-16T20:36:46.057Z,42.60
2023-04-16T20:39:20.440Z,42.20
2023-04-16T20:41:56.552Z,42.10
2023-04-16T20:44:26.454Z,42.60
2023-04-16T20:46:57.112Z,42.60
2023-04-16T20:49:25.831Z,42.30
2023-04-16T20:51:54.056Z,41.80
2023-04-16T20:54:22.207Z,41.80
2023-04-16T20:56:50.494Z,41.70
2023-04-16T20:59:18.692Z,41.70
2023-04-16T21:01:47.498Z,42.20
2023-04-16T21:04:17.194Z,42.00
2023-04-16T21:06:45.616Z,42.10
2023-04-16T21:09:14.201Z,42.20
2023-04-16T21:11:42.362Z,42.10
2023-04-16T21:14:10.798Z,42.20
2023-04-16T21:16:38.976Z,42.30
2023-04-16T21:19:08.688Z,42.20
2023-04-16T21:21:38.880Z,42.70
2023-04-16T21:24:09.419Z,42.60
2023-04-16T21:26:37.619Z,42.20
2023-04-16T21:29:07.728Z,42.30
2023-04-16T21:31:36.032Z,42.60
2023-04-16T21:34:04.322Z,42.70
2023-04-16T21:36:35.445Z,42.80
2023-04-16T21:39:05.122Z,43.00
2023-04-16T21:41:33.324Z,42.90
2023-04-16T21:44:01.491Z,42.90
2023-04-16T21:46:29.735Z,43.20
2023-04-16T21:48:58.017Z,43.20
2023-04-16T21:51:29.845Z,43.70
2023-04-16T21:53:58.379Z,43.80
2023-04-16T21:56:27.948Z,43.90
2023-04-16T21:58:56.143Z,44.00
2023-04-16T22:01:25.870Z,44.20
2023-04-16T22:03:54.307Z,44.10
2023-04-16T22:06:23.100Z,44.30
2023-04-16T22:08:51.281Z,44.00
2023-04-16T22:11:19.454Z,44.00
2023-04-16T22:13:49.410Z,44.30
2023-04-16T22:16:17.661Z,44.40
2023-04-16T22:18:47.254Z,44.60
2023-04-16T22:21:15.502Z,44.00
2023-04-16T22:23:43.705Z,44.20
2023-04-16T22:26:12.789Z,44.90
2023-04-16T22:28:40.967Z,44.20
2023-04-16T22:31:10.547Z,44.40
2023-04-16T22:33:38.728Z,44.80
2023-04-16T22:36:07.706Z,44.80
2023-04-16T22:38:36.913Z,44.40
2023-04-16T22:41:05.386Z,44.60
2023-04-16T22:43:37.131Z,44.60
2023-04-16T22:46:06.860Z,44.50
2023-04-16T22:48:38.133Z,44.50
2023-04-16T22:51:08.628Z,44.50
2023-04-16T22:53:37.003Z,44.60
2023-04-16T22:56:07.545Z,44.80
2023-04-16T22:58:35.996Z,45.00
2023-04-16T23:01:04.197Z,45.60
2023-04-16T23:03:32.502Z,45.70
2023-04-16T23:06:03.494Z,46.00
2023-04-16T23:08:31.693Z,46.00
2023-04-16T23:10:59.918Z,46.10
2023-04-16T23:13:28.123Z,46.00
2023-04-16T23:15:56.377Z,46.00
2023-04-16T23:18:24.594Z,46.00
2023-04-16T23:20:53.343Z,46.00
2023-04-16T23:23:22.872Z,46.20
2023-04-16T23:25:54.161Z,45.90
2023-04-16T23:28:22.639Z,45.90
2023-04-16T23:30:53.577Z,45.10
2023-04-16T23:33:21.999Z,46.10
2023-04-16T23:35:50.241Z,46.00
2023-04-16T23:38:18.472Z,46.20
2023-04-16T23:40:48.041Z,46.90
2023-04-16T23:43:16.293Z,47.50
2023-04-16T23:45:44.753Z,47.90
2023-04-16T23:48:12.977Z,46.50
2023-04-16T23:50:41.121Z,46.60
2023-04-16T23:53:09.429Z,46.10
2023-04-16T23:55:37.746Z,46.60
2023-04-16T23:58:07.399Z,47.70
